sensor_id;sensor_type;location;lat;lon;timestamp;pressure;altitude;pressure_sealevel;temperature;humidity
1776;BME280;885;42.626;23.200;2023-02-18T00:01:32;86251.66;;;3.71;86.89
1776;BME280;885;42.626;23.200;2023-02-18T00:03:59;86357.03;;;3.74;87.41
1776;BME280;885;42.626;23.200;2023-02-18T00:06:28;86729.47;;;3.73;88.38
1776;BME280;885;42.626;23.200;2023-02-18T00:08:56;86879.94;;;3.68;88.11
1776;BME280;885;42.626;23.200;2023-02-18T00:11:27;86475.91;;;3.66;87.21
1776;BME280;885;42.626;23.200;2023-02-18T00:13:57;85914.97;;;3.75;85.04
1776;BME280;885;42.626;23.200;2023-02-18T00:16:25;85728.50;;;3.85;85.22
1776;BME280;885;42.626;23.200;2023-02-18T00:18:54;85563.97;;;3.88;83.79
1776;BME280;885;42.626;23.200;2023-02-18T00:21:22;85011.28;;;3.97;81.50
1776;BME280;885;42.626;23.200;2023-02-18T00:23:49;84712.22;;;3.90;81.41
1776;BME280;885;42.626;23.200;2023-02-18T00:26:17;84470.00;;;3.73;82.47
1776;BME280;885;42.626;23.200;2023-02-18T00:28:45;84461.88;;;3.67;83.36
1776;BME280;885;42.626;23.200;2023-02-18T00:31:16;85090.41;;;3.52;86.85
1776;BME280;885;42.626;23.200;2023-02-18T00:33:43;85815.00;;;3.58;87.20
1776;BME280;885;42.626;23.200;2023-02-18T00:36:11;85468.03;;;3.77;84.76
1776;BME280;885;42.626;23.200;2023-02-18T00:38:43;85865.72;;;3.78;86.51
1776;BME280;885;42.626;23.200;2023-02-18T00:41:09;86041.38;;;3.79;86.15
1776;BME280;885;42.626;23.200;2023-02-18T00:43:37;85635.75;;;3.85;84.68
1776;BME280;885;42.626;23.200;2023-02-18T00:46:06;85849.16;;;3.93;85.13
1776;BME280;885;42.626;23.200;2023-02-18T00:48:33;85559.59;;;3.93;83.46
1776;BME280;885;42.626;23.200;2023-02-18T00:51:04;85267.84;;;3.77;84.54
1776;BME280;885;42.626;23.200;2023-02-18T00:53:32;84521.72;;;3.78;80.59
1776;BME280;885;42.626;23.200;2023-02-18T00:55:59;84050.16;;;3.82;79.83
1776;BME280;885;42.626;23.200;2023-02-18T00:58:26;84167.03;;;3.90;80.56
1776;BME280;885;42.626;23.200;2023-02-18T01:00:54;83967.16;;;3.96;78.96
1776;BME280;885;42.626;23.200;2023-02-18T01:03:21;84331.06;;;3.97;81.31
1776;BME280;885;42.626;23.200;2023-02-18T01:05:49;84617.66;;;3.99;81.66
1776;BME280;885;42.626;23.200;2023-02-18T01:08:17;84482.94;;;3.95;81.70
1776;BME280;885;42.626;23.200;2023-02-18T01:10:47;84513.97;;;3.93;81.76
1776;BME280;885;42.626;23.200;2023-02-18T01:13:14;84064.06;;;3.97;80.19
1776;BME280;885;42.626;23.200;2023-02-18T01:15:42;84065.31;;;4.00;79.01
1776;BME280;885;42.626;23.200;2023-02-18T01:18:14;83117.84;;;4.06;73.81
1776;BME280;885;42.626;23.200;2023-02-18T01:20:42;83194.44;;;4.15;75.82
1776;BME280;885;42.626;23.200;2023-02-18T01:23:09;83396.53;;;4.19;75.48
1776;BME280;885;42.626;23.200;2023-02-18T01:25:36;83369.47;;;4.35;74.99
1776;BME280;885;42.626;23.200;2023-02-18T01:28:04;83553.66;;;4.44;75.21
1776;BME280;885;42.626;23.200;2023-02-18T01:30:31;83668.03;;;4.37;77.07
1776;BME280;885;42.626;23.200;2023-02-18T01:32:59;83736.06;;;4.29;78.16
1776;BME280;885;42.626;23.200;2023-02-18T01:35:27;83739.91;;;4.24;78.66
1776;BME280;885;42.626;23.200;2023-02-18T01:37:54;83801.19;;;4.21;79.76
1776;BME280;885;42.626;23.200;2023-02-18T01:40:22;84098.75;;;4.29;80.15
1776;BME280;885;42.626;23.200;2023-02-18T01:42:50;84182.56;;;4.14;82.08
1776;BME280;885;42.626;23.200;2023-02-18T01:45:46;84105.53;;;4.09;82.23
1776;BME280;885;42.626;23.200;2023-02-18T01:48:16;84362.22;;;4.06;83.06
1776;BME280;885;42.626;23.200;2023-02-18T01:50:48;84404.59;;;4.01;83.29
1776;BME280;885;42.626;23.200;2023-02-18T01:53:17;84657.59;;;4.01;84.66
1776;BME280;885;42.626;23.200;2023-02-18T01:55:46;84923.25;;;4.00;85.43
1776;BME280;885;42.626;23.200;2023-02-18T01:58:14;85304.63;;;4.08;85.85
1776;BME280;885;42.626;23.200;2023-02-18T02:00:42;85425.38;;;4.12;85.71
1776;BME280;885;42.626;23.200;2023-02-18T02:03:10;85858.28;;;4.18;86.57
1776;BME280;885;42.626;23.200;2023-02-18T02:05:37;85889.16;;;4.20;85.92
1776;BME280;885;42.626;23.200;2023-02-18T02:08:05;85713.53;;;4.15;85.56
1776;BME280;885;42.626;23.200;2023-02-18T02:10:42;85118.88;;;4.12;83.54
1776;BME280;885;42.626;23.200;2023-02-18T02:13:15;85509.69;;;4.14;85.10
1776;BME280;885;42.626;23.200;2023-02-18T02:15:49;85646.16;;;4.11;85.85
1776;BME280;885;42.626;23.200;2023-02-18T02:18:31;85794.47;;;4.13;85.53
1776;BME280;885;42.626;23.200;2023-02-18T02:27:02;85442.03;;;4.18;83.51
1776;BME280;885;42.626;23.200;2023-02-18T02:30:00;85228.22;;;4.20;82.17
1776;BME280;885;42.626;23.200;2023-02-18T02:32:50;85088.22;;;4.23;82.05
1776;BME280;885;42.626;23.200;2023-02-18T02:35:24;85148.03;;;4.21;82.18
1776;BME280;885;42.626;23.200;2023-02-18T02:37:58;85035.53;;;4.21;82.35
1776;BME280;885;42.626;23.200;2023-02-18T02:40:31;84976.56;;;4.19;82.41
1776;BME280;885;42.626;23.200;2023-02-18T02:43:07;84507.03;;;4.04;82.08
1776;BME280;885;42.626;23.200;2023-02-18T02:45:44;84730.47;;;4.06;82.57
1776;BME280;885;42.626;23.200;2023-02-18T02:48:20;84746.38;;;4.11;82.07
1776;BME280;885;42.626;23.200;2023-02-18T02:50:53;84446.56;;;4.06;81.79
1776;BME280;885;42.626;23.200;2023-02-18T02:53:29;84375.97;;;4.12;80.87
1776;BME280;885;42.626;23.200;2023-02-18T02:55:56;84106.34;;;3.95;81.63
1776;BME280;885;42.626;23.200;2023-02-18T02:58:23;84271.81;;;4.01;82.31
1776;BME280;885;42.626;23.200;2023-02-18T03:01:04;84100.38;;;4.01;80.71
1776;BME280;885;42.626;23.200;2023-02-18T03:03:47;84024.59;;;3.99;80.93
1776;BME280;885;42.626;23.200;2023-02-18T03:06:31;84176.03;;;4.05;81.09
1776;BME280;885;42.626;23.200;2023-02-18T03:09:09;84020.44;;;3.98;80.96
1776;BME280;885;42.626;23.200;2023-02-18T03:11:45;84107.25;;;3.91;82.22
1776;BME280;885;42.626;23.200;2023-02-18T03:14:26;84203.69;;;3.88;83.51
1776;BME280;885;42.626;23.200;2023-02-18T03:16:58;84151.31;;;3.82;83.42
1776;BME280;885;42.626;23.200;2023-02-18T03:19:30;84018.91;;;3.76;82.59
1776;BME280;885;42.626;23.200;2023-02-18T03:22:03;83860.69;;;3.79;82.33
1776;BME280;885;42.626;23.200;2023-02-18T03:24:34;83622.69;;;3.78;81.40
1776;BME280;885;42.626;23.200;2023-02-18T03:27:05;83630.84;;;3.82;81.18
1776;BME280;885;42.626;23.200;2023-02-18T03:29:34;83711.00;;;3.81;81.47
1776;BME280;885;42.626;23.200;2023-02-18T03:32:04;83345.53;;;3.85;78.77
1776;BME280;885;42.626;23.200;2023-02-18T03:34:36;83393.41;;;3.83;80.08
1776;BME280;885;42.626;23.200;2023-02-18T03:37:06;83607.19;;;3.79;82.34
1776;BME280;885;42.626;23.200;2023-02-18T03:39:36;83792.34;;;3.83;82.38
1776;BME280;885;42.626;23.200;2023-02-18T03:42:04;83885.19;;;3.81;83.40
1776;BME280;885;42.626;23.200;2023-02-18T03:44:32;83841.06;;;3.67;84.02
1776;BME280;885;42.626;23.200;2023-02-18T03:46:58;83522.59;;;3.51;83.79
1776;BME280;885;42.626;23.200;2023-02-18T03:49:25;83779.91;;;3.57;84.81
1776;BME280;885;42.626;23.200;2023-02-18T03:51:52;84025.34;;;3.62;84.66
1776;BME280;885;42.626;23.200;2023-02-18T03:54:20;83739.19;;;3.68;81.63
1776;BME280;885;42.626;23.200;2023-02-18T03:56:47;83530.53;;;3.80;80.20
1776;BME280;885;42.626;23.200;2023-02-18T03:59:13;83559.81;;;3.83;80.95
1776;BME280;885;42.626;23.200;2023-02-18T04:01:40;83571.88;;;3.82;80.50
1776;BME280;885;42.626;23.200;2023-02-18T04:04:07;83515.53;;;3.73;81.35
1776;BME280;885;42.626;23.200;2023-02-18T04:06:34;83226.75;;;3.76;79.76
1776;BME280;885;42.626;23.200;2023-02-18T04:09:01;83651.88;;;3.83;81.37
1776;BME280;885;42.626;23.200;2023-02-18T04:11:34;83795.34;;;3.91;81.64
1776;BME280;885;42.626;23.200;2023-02-18T04:14:01;83771.94;;;3.95;81.01
1776;BME280;885;42.626;23.200;2023-02-18T04:16:28;83561.19;;;3.95;79.44
1776;BME280;885;42.626;23.200;2023-02-18T04:18:55;82990.22;;;3.84;77.46
1776;BME280;885;42.626;23.200;2023-02-18T04:21:22;82961.47;;;3.83;78.04
1776;BME280;885;42.626;23.200;2023-02-18T04:23:49;83082.47;;;3.90;78.00
1776;BME280;885;42.626;23.200;2023-02-18T04:26:15;83134.00;;;3.86;79.03
1776;BME280;885;42.626;23.200;2023-02-18T04:28:44;83106.59;;;3.87;79.22
1776;BME280;885;42.626;23.200;2023-02-18T04:31:10;83002.50;;;3.89;77.90
1776;BME280;885;42.626;23.200;2023-02-18T04:33:37;82786.63;;;3.74;78.14
1776;BME280;885;42.626;23.200;2023-02-18T04:36:05;82954.47;;;3.74;79.71
1776;BME280;885;42.626;23.200;2023-02-18T04:38:31;82974.88;;;3.64;81.56
1776;BME280;885;42.626;23.200;2023-02-18T04:40:58;83002.59;;;3.59;81.05
1776;BME280;885;42.626;23.200;2023-02-18T04:43:25;82342.22;;;3.25;81.10
1776;BME280;885;42.626;23.200;2023-02-18T04:45:53;81899.72;;;3.23;78.17
1776;BME280;885;42.626;23.200;2023-02-18T04:48:20;81589.59;;;3.17;76.32
1776;BME280;885;42.626;23.200;2023-02-18T04:50:47;81541.69;;;3.19;76.03
1776;BME280;885;42.626;23.200;2023-02-18T04:53:13;81819.88;;;3.22;79.09
1776;BME280;885;42.626;23.200;2023-02-18T04:55:40;81998.41;;;3.26;79.84
1776;BME280;885;42.626;23.200;2023-02-18T04:58:07;82001.94;;;3.17;80.12
1776;BME280;885;42.626;23.200;2023-02-18T05:00:34;81692.63;;;2.95;80.02
1776;BME280;885;42.626;23.200;2023-02-18T05:03:02;81669.53;;;2.95;80.02
1776;BME280;885;42.626;23.200;2023-02-18T05:05:29;81830.00;;;2.95;81.20
1776;BME280;885;42.626;23.200;2023-02-18T05:07:56;82235.63;;;3.07;82.41
1776;BME280;885;42.626;23.200;2023-02-18T05:10:22;82370.44;;;3.05;84.18
1776;BME280;885;42.626;23.200;2023-02-18T05:12:49;82327.19;;;3.02;83.39
1776;BME280;885;42.626;23.200;2023-02-18T05:15:16;82526.16;;;2.96;85.73
1776;BME280;885;42.626;23.200;2023-02-18T05:17:43;82226.06;;;3.04;81.45
1776;BME280;885;42.626;23.200;2023-02-18T05:20:11;82414.00;;;3.21;81.86
1776;BME280;885;42.626;23.200;2023-02-18T05:22:38;82708.91;;;3.17;84.43
1776;BME280;885;42.626;23.200;2023-02-18T05:25:05;83099.22;;;3.13;85.96
1776;BME280;885;42.626;23.200;2023-02-18T05:27:32;83111.75;;;3.14;85.66
1776;BME280;885;42.626;23.200;2023-02-18T05:29:59;83242.84;;;3.16;85.60
1776;BME280;885;42.626;23.200;2023-02-18T05:32:26;83361.50;;;3.25;85.20
1776;BME280;885;42.626;23.200;2023-02-18T05:34:52;83646.88;;;3.29;85.85
1776;BME280;885;42.626;23.200;2023-02-18T05:37:20;83386.50;;;3.40;82.88
1776;BME280;885;42.626;23.200;2023-02-18T05:39:47;83743.75;;;3.51;84.37
1776;BME280;885;42.626;23.200;2023-02-18T05:42:14;83747.25;;;3.51;84.05
1776;BME280;885;42.626;23.200;2023-02-18T05:44:41;83573.28;;;3.49;83.54
1776;BME280;885;42.626;23.200;2023-02-18T05:47:09;83549.75;;;3.55;83.21
1776;BME280;885;42.626;23.200;2023-02-18T05:49:37;83681.22;;;3.63;82.54
1776;BME280;885;42.626;23.200;2023-02-18T05:52:05;83598.88;;;3.77;80.38
1776;BME280;885;42.626;23.200;2023-02-18T05:54:34;83811.91;;;3.85;81.47
1776;BME280;885;42.626;23.200;2023-02-18T05:57:00;83836.19;;;3.78;82.26
1776;BME280;885;42.626;23.200;2023-02-18T05:59:28;83534.66;;;3.92;78.64
1776;BME280;885;42.626;23.200;2023-02-18T06:01:55;83773.59;;;4.13;77.88
1776;BME280;885;42.626;23.200;2023-02-18T06:04:22;84126.06;;;4.43;76.47
1776;BME280;885;42.626;23.200;2023-02-18T06:06:49;84481.28;;;4.54;78.40
1776;BME280;885;42.626;23.200;2023-02-18T06:09:18;85021.03;;;4.64;79.43
1776;BME280;885;42.626;23.200;2023-02-18T06:11:46;85213.75;;;4.65;80.48
1776;BME280;885;42.626;23.200;2023-02-18T06:14:12;85206.25;;;4.76;78.83
1776;BME280;885;42.626;23.200;2023-02-18T06:16:39;85203.19;;;4.82;78.23
1776;BME280;885;42.626;23.200;2023-02-18T06:19:06;84630.28;;;4.98;73.50
1776;BME280;885;42.626;23.200;2023-02-18T06:21:33;85206.09;;;5.14;76.15
1776;BME280;885;42.626;23.200;2023-02-18T06:23:59;85658.63;;;5.21;77.49
1776;BME280;885;42.626;23.200;2023-02-18T06:26:26;85673.38;;;5.22;76.75
1776;BME280;885;42.626;23.200;2023-02-18T06:28:54;85615.53;;;5.25;76.28
1776;BME280;885;42.626;23.200;2023-02-18T06:31:21;84940.97;;;5.36;71.44
1776;BME280;885;42.626;23.200;2023-02-18T06:33:47;84856.84;;;5.43;71.46
1776;BME280;885;42.626;23.200;2023-02-18T06:36:14;85181.81;;;5.54;71.62
1776;BME280;885;42.626;23.200;2023-02-18T06:38:44;85258.34;;;5.44;74.36
1776;BME280;885;42.626;23.200;2023-02-18T06:41:12;84403.69;;;5.35;68.87
1776;BME280;885;42.626;23.200;2023-02-18T06:43:39;83789.22;;;5.41;66.26
1776;BME280;885;42.626;23.200;2023-02-18T06:46:07;84177.78;;;5.55;67.65
1776;BME280;885;42.626;23.200;2023-02-18T06:48:34;85190.16;;;5.56;74.26
1776;BME280;885;42.626;23.200;2023-02-18T06:51:00;85511.94;;;5.62;73.33
1776;BME280;885;42.626;23.200;2023-02-18T06:53:28;84437.94;;;5.52;69.43
1776;BME280;885;42.626;23.200;2023-02-18T06:55:55;83925.28;;;5.50;67.15
1776;BME280;885;42.626;23.200;2023-02-18T06:58:22;83579.56;;;5.48;65.93
1776;BME280;885;42.626;23.200;2023-02-18T07:00:48;83713.94;;;5.60;65.32
1776;BME280;885;42.626;23.200;2023-02-18T07:03:17;83653.41;;;5.70;64.22
1776;BME280;885;42.626;23.200;2023-02-18T07:05:44;84119.19;;;5.92;65.51
1776;BME280;885;42.626;23.200;2023-02-18T07:08:10;84759.28;;;6.04;67.71
1776;BME280;885;42.626;23.200;2023-02-18T07:10:37;85063.59;;;5.96;71.09
1776;BME280;885;42.626;23.200;2023-02-18T07:13:04;85574.72;;;5.98;73.07
1776;BME280;885;42.626;23.200;2023-02-18T07:15:31;85600.34;;;5.92;73.75
1776;BME280;885;42.626;23.200;2023-02-18T07:17:58;85908.78;;;6.03;73.70
1776;BME280;885;42.626;23.200;2023-02-18T07:20:27;85628.06;;;6.04;71.76
1776;BME280;885;42.626;23.200;2023-02-18T07:22:53;85607.22;;;6.14;70.52
1776;BME280;885;42.626;23.200;2023-02-18T07:25:21;86506.44;;;6.23;74.53
1776;BME280;885;42.626;23.200;2023-02-18T07:27:48;85773.09;;;6.11;71.46
1776;BME280;885;42.626;23.200;2023-02-18T07:30:15;86225.28;;;6.34;71.48
1776;BME280;885;42.626;23.200;2023-02-18T07:32:42;87057.75;;;6.55;73.11
1776;BME280;885;42.626;23.200;2023-02-18T07:35:10;87488.38;;;6.66;73.59
1776;BME280;885;42.626;23.200;2023-02-18T07:37:43;87108.88;;;6.79;70.33
1776;BME280;885;42.626;23.200;2023-02-18T07:40:12;86991.53;;;6.84;68.68
1776;BME280;885;42.626;23.200;2023-02-18T07:42:38;86214.28;;;6.92;64.63
1776;BME280;885;42.626;23.200;2023-02-18T07:45:06;84965.94;;;6.86;58.90
1776;BME280;885;42.626;23.200;2023-02-18T07:47:33;84818.13;;;6.77;60.60
1776;BME280;885;42.626;23.200;2023-02-18T07:50:00;84267.25;;;6.71;58.30
1776;BME280;885;42.626;23.200;2023-02-18T07:52:27;84385.50;;;6.87;58.35
1776;BME280;885;42.626;23.200;2023-02-18T07:54:55;84757.59;;;7.25;56.90
1776;BME280;885;42.626;23.200;2023-02-18T07:57:21;84855.59;;;7.41;55.48
1776;BME280;885;42.626;23.200;2023-02-18T07:59:48;84878.66;;;7.45;57.25
1776;BME280;885;42.626;23.200;2023-02-18T08:02:17;85870.28;;;7.98;55.59
1776;BME280;885;42.626;23.200;2023-02-18T08:04:44;86032.97;;;8.37;53.53
1776;BME280;885;42.626;23.200;2023-02-18T08:07:12;86072.81;;;8.49;53.29
1776;BME280;885;42.626;23.200;2023-02-18T08:09:39;85876.06;;;8.46;54.32
1776;BME280;885;42.626;23.200;2023-02-18T08:12:08;85409.78;;;8.26;53.62
1776;BME280;885;42.626;23.200;2023-02-18T08:14:35;85549.00;;;8.31;53.91
1776;BME280;885;42.626;23.200;2023-02-18T08:17:02;86087.88;;;8.62;54.18
1776;BME280;885;42.626;23.200;2023-02-18T08:19:28;86306.28;;;8.75;54.48
1776;BME280;885;42.626;23.200;2023-02-18T08:21:55;86534.38;;;8.97;53.45
1776;BME280;885;42.626;23.200;2023-02-18T08:24:22;86231.03;;;8.97;51.67
1776;BME280;885;42.626;23.200;2023-02-18T08:26:49;87142.50;;;9.00;57.10
1776;BME280;885;42.626;23.200;2023-02-18T08:29:17;86141.50;;;8.85;53.50
1776;BME280;885;42.626;23.200;2023-02-18T08:31:43;85223.25;;;8.60;52.58
1776;BME280;885;42.626;23.200;2023-02-18T08:34:10;85663.03;;;8.75;52.77
1776;BME280;885;42.626;23.200;2023-02-18T08:36:37;85505.31;;;8.69;53.08
1776;BME280;885;42.626;23.200;2023-02-18T08:39:04;85079.59;;;8.71;51.26
1776;BME280;885;42.626;23.200;2023-02-18T08:41:30;85171.81;;;8.80;51.14
1776;BME280;885;42.626;23.200;2023-02-18T08:43:57;85206.84;;;8.88;50.80
1776;BME280;885;42.626;23.200;2023-02-18T08:46:25;84729.16;;;8.57;52.21
1776;BME280;885;42.626;23.200;2023-02-18T08:48:52;84812.66;;;8.58;53.14
1776;BME280;885;42.626;23.200;2023-02-18T08:51:20;85019.28;;;8.72;52.87
1776;BME280;885;42.626;23.200;2023-02-18T08:53:47;85617.19;;;9.00;52.70
1776;BME280;885;42.626;23.200;2023-02-18T08:56:14;85754.25;;;9.09;52.85
1776;BME280;885;42.626;23.200;2023-02-18T08:58:42;85229.88;;;8.94;51.01
1776;BME280;885;42.626;23.200;2023-02-18T09:01:10;84423.88;;;8.49;52.82
1776;BME280;885;42.626;23.200;2023-02-18T09:03:39;84630.59;;;8.59;52.58
1776;BME280;885;42.626;23.200;2023-02-18T09:06:06;85002.75;;;8.77;53.32
1776;BME280;885;42.626;23.200;2023-02-18T09:08:33;85149.38;;;8.89;52.84
1776;BME280;885;42.626;23.200;2023-02-18T09:11:02;85467.22;;;9.08;52.83
1776;BME280;885;42.626;23.200;2023-02-18T09:13:30;86120.28;;;9.36;53.05
1776;BME280;885;42.626;23.200;2023-02-18T09:15:58;86723.03;;;9.59;53.74
1776;BME280;885;42.626;23.200;2023-02-18T09:18:26;88042.06;;;9.81;56.68
1776;BME280;885;42.626;23.200;2023-02-18T09:20:57;88253.47;;;10.00;55.48
1776;BME280;885;42.626;23.200;2023-02-18T09:23:24;89032.06;;;10.12;57.20
1776;BME280;885;42.626;23.200;2023-02-18T09:25:51;88548.09;;;10.32;52.08
1776;BME280;885;42.626;23.200;2023-02-18T09:28:17;89820.97;;;10.67;54.04
1776;BME280;885;42.626;23.200;2023-02-18T09:30:44;88921.91;;;10.83;49.63
1776;BME280;885;42.626;23.200;2023-02-18T09:33:11;89938.00;;;10.93;52.51
1776;BME280;885;42.626;23.200;2023-02-18T09:35:39;89943.25;;;11.11;50.48
1776;BME280;885;42.626;23.200;2023-02-18T09:38:08;92560.97;;;11.50;55.29
1776;BME280;885;42.626;23.200;2023-02-18T09:40:38;93412.53;;;11.97;52.44
1776;BME280;885;42.626;23.200;2023-02-18T09:43:17;91733.34;;;12.16;46.33
1776;BME280;885;42.626;23.200;2023-02-18T09:45:47;91076.69;;;12.27;45.62
1776;BME280;885;42.626;23.200;2023-02-18T09:48:15;91409.94;;;12.50;45.00
1776;BME280;885;42.626;23.200;2023-02-18T09:50:46;91747.81;;;12.96;43.07
1776;BME280;885;42.626;23.200;2023-02-18T09:53:17;91543.78;;;13.25;41.24
1776;BME280;885;42.626;23.200;2023-02-18T09:55:44;91344.13;;;13.41;41.26
1776;BME280;885;42.626;23.200;2023-02-18T09:58:13;90455.78;;;13.43;39.80
1776;BME280;885;42.626;23.200;2023-02-18T10:00:42;89873.34;;;13.38;39.33
1776;BME280;885;42.626;23.200;2023-02-18T10:03:13;89854.78;;;13.39;40.27
1776;BME280;885;42.626;23.200;2023-02-18T10:05:48;89767.66;;;13.62;38.53
1776;BME280;885;42.626;23.200;2023-02-18T10:08:21;89926.47;;;13.93;37.39
1776;BME280;885;42.626;23.200;2023-02-18T10:10:49;89601.06;;;14.06;36.74
1776;BME280;885;42.626;23.200;2023-02-18T10:13:19;89721.94;;;14.28;35.83
1776;BME280;885;42.626;23.200;2023-02-18T10:15:48;89791.34;;;14.57;35.89
1776;BME280;885;42.626;23.200;2023-02-18T10:18:25;90042.69;;;14.83;35.23
1776;BME280;885;42.626;23.200;2023-02-18T10:20:57;89227.19;;;14.65;35.04
1776;BME280;885;42.626;23.200;2023-02-18T10:23:28;88587.44;;;14.56;34.44
1776;BME280;885;42.626;23.200;2023-02-18T10:25:56;89380.94;;;14.87;35.33
1776;BME280;885;42.626;23.200;2023-02-18T10:28:25;89098.66;;;14.94;34.13
1776;BME280;885;42.626;23.200;2023-02-18T10:30:57;89109.88;;;15.14;34.16
1776;BME280;885;42.626;23.200;2023-02-18T10:33:32;88563.59;;;15.00;33.69
1776;BME280;885;42.626;23.200;2023-02-18T10:36:11;88683.94;;;14.98;34.31
1776;BME280;885;42.626;23.200;2023-02-18T10:39:01;89477.09;;;15.49;34.39
1776;BME280;885;42.626;23.200;2023-02-18T10:41:36;89686.97;;;15.77;33.44
1776;BME280;885;42.626;23.200;2023-02-18T10:44:12;88546.16;;;15.43;32.90
1776;BME280;885;42.626;23.200;2023-02-18T10:46:49;87775.78;;;15.23;32.46
1776;BME280;885;42.626;23.200;2023-02-18T10:49:39;88584.56;;;15.54;33.28
1776;BME280;885;42.626;23.200;2023-02-18T10:52:14;88587.00;;;15.72;32.60
1776;BME280;885;42.626;23.200;2023-02-18T10:54:51;89032.22;;;16.14;32.18
1776;BME280;885;42.626;23.200;2023-02-18T10:57:21;88878.66;;;16.15;31.69
1776;BME280;885;42.626;23.200;2023-02-18T10:59:57;88454.19;;;16.05;32.34
1776;BME280;885;42.626;23.200;2023-02-18T11:02:26;88290.47;;;16.11;31.34
1776;BME280;885;42.626;23.200;2023-02-18T11:04:56;88903.34;;;16.34;32.05
1776;BME280;885;42.626;23.200;2023-02-18T11:07:26;88108.78;;;16.16;31.65
1776;BME280;885;42.626;23.200;2023-02-18T11:09:57;88882.47;;;16.38;32.61
1776;BME280;885;42.626;23.200;2023-02-18T11:12:28;88715.28;;;16.35;32.93
1776;BME280;885;42.626;23.200;2023-02-18T11:15:06;90163.09;;;16.96;32.92
1776;BME280;885;42.626;23.200;2023-02-18T11:17:42;88782.94;;;16.57;31.75
1776;BME280;885;42.626;23.200;2023-02-18T11:20:23;88529.88;;;16.42;32.56
1776;BME280;885;42.626;23.200;2023-02-18T11:22:50;88150.91;;;16.22;32.68
1776;BME280;885;42.626;23.200;2023-02-18T11:25:21;88412.94;;;16.41;32.93
1776;BME280;885;42.626;23.200;2023-02-18T11:27:50;89263.53;;;16.86;32.52
1776;BME280;885;42.626;23.200;2023-02-18T11:30:20;88752.47;;;16.70;31.90
1776;BME280;885;42.626;23.200;2023-02-18T11:32:50;89810.78;;;17.13;32.59
1776;BME280;885;42.626;23.200;2023-02-18T11:35:20;90323.28;;;17.40;32.45
1776;BME280;885;42.626;23.200;2023-02-18T11:37:47;89100.81;;;17.03;32.00
1776;BME280;885;42.626;23.200;2023-02-18T11:40:22;89949.38;;;17.32;32.29
1776;BME280;885;42.626;23.200;2023-02-18T11:42:50;88785.03;;;16.89;32.17
1776;BME280;885;42.626;23.200;2023-02-18T11:45:28;88899.06;;;16.97;32.44
1776;BME280;885;42.626;23.200;2023-02-18T11:47:59;88334.50;;;16.71;32.74
1776;BME280;885;42.626;23.200;2023-02-18T11:50:30;89323.88;;;17.29;32.04
1776;BME280;885;42.626;23.200;2023-02-18T11:52:57;88351.75;;;16.71;33.08
1776;BME280;885;42.626;23.200;2023-02-18T11:55:27;89347.94;;;17.09;33.37
1776;BME280;885;42.626;23.200;2023-02-18T11:57:58;90762.97;;;17.82;32.54
1776;BME280;885;42.626;23.200;2023-02-18T12:00:36;91700.94;;;18.21;32.52
1776;BME280;885;42.626;23.200;2023-02-18T12:03:12;91759.78;;;18.48;31.13
1776;BME280;885;42.626;23.200;2023-02-18T12:05:43;90956.72;;;18.06;32.22
1776;BME280;885;42.626;23.200;2023-02-18T12:08:16;93269.66;;;18.92;32.04
1776;BME280;885;42.626;23.200;2023-02-18T12:10:48;94614.22;;;19.53;31.12
1776;BME280;885;42.626;23.200;2023-02-18T12:13:23;92243.16;;;18.96;30.25
1776;BME280;885;42.626;23.200;2023-02-18T12:15:57;92818.13;;;19.19;30.10
1776;BME280;885;42.626;23.200;2023-02-18T12:18:52;92857.94;;;19.22;30.62
1776;BME280;885;42.626;23.200;2023-02-18T12:21:34;93171.34;;;19.45;30.45
1776;BME280;885;42.626;23.200;2023-02-18T12:24:12;90987.97;;;18.62;30.64
1776;BME280;885;42.626;23.200;2023-02-18T12:26:49;92367.09;;;18.90;32.61
1776;BME280;885;42.626;23.200;2023-02-18T12:29:35;91184.16;;;18.80;30.41
1776;BME280;885;42.626;23.200;2023-02-18T12:32:16;89975.84;;;18.21;31.48
1776;BME280;885;42.626;23.200;2023-02-18T12:34:59;90892.81;;;18.64;31.35
1776;BME280;885;42.626;23.200;2023-02-18T12:37:49;90603.81;;;18.64;30.85
1776;BME280;885;42.626;23.200;2023-02-18T12:40:39;90791.91;;;18.66;31.10
1776;BME280;885;42.626;23.200;2023-02-18T12:43:18;90134.19;;;18.34;31.97
1776;BME280;885;42.626;23.200;2023-02-18T12:45:59;88367.50;;;17.59;31.99
1776;BME280;885;42.626;23.200;2023-02-18T12:48:44;86318.16;;;16.33;33.29
1776;BME280;885;42.626;23.200;2023-02-18T12:51:25;87736.50;;;17.02;33.79
1776;BME280;885;42.626;23.200;2023-02-18T12:54:16;86539.88;;;16.44;33.61
1776;BME280;885;42.626;23.200;2023-02-18T12:57:08;86928.97;;;16.53;34.65
1776;BME280;885;42.626;23.200;2023-02-18T13:00:02;85290.28;;;15.62;35.03
1776;BME280;885;42.626;23.200;2023-02-18T13:02:49;85144.41;;;15.41;35.92
1776;BME280;885;42.626;23.200;2023-02-18T13:05:27;85014.00;;;15.33;35.80
1776;BME280;885;42.626;23.200;2023-02-18T13:08:10;86461.09;;;16.18;35.79
1776;BME280;885;42.626;23.200;2023-02-18T13:11:00;87741.81;;;16.95;34.91
1776;BME280;885;42.626;23.200;2023-02-18T13:13:32;88872.47;;;17.54;34.64
1776;BME280;885;42.626;23.200;2023-02-18T13:16:04;88132.59;;;17.32;33.95
1776;BME280;885;42.626;23.200;2023-02-18T13:18:35;88935.38;;;17.70;33.94
1776;BME280;885;42.626;23.200;2023-02-18T13:21:05;88196.00;;;17.28;34.35
1776;BME280;885;42.626;23.200;2023-02-18T13:23:34;87486.53;;;17.02;34.00
1776;BME280;885;42.626;23.200;2023-02-18T13:26:05;87710.47;;;17.06;34.73
1776;BME280;885;42.626;23.200;2023-02-18T13:28:37;88095.94;;;17.14;35.03
1776;BME280;885;42.626;23.200;2023-02-18T13:31:17;87606.97;;;16.91;35.14
1776;BME280;885;42.626;23.200;2023-02-18T13:33:50;85580.53;;;15.79;35.50
1776;BME280;885;42.626;23.200;2023-02-18T13:36:32;85391.19;;;15.54;36.92
1776;BME280;885;42.626;23.200;2023-02-18T13:39:04;84789.28;;;15.15;37.45
1776;BME280;885;42.626;23.200;2023-02-18T13:41:37;85209.53;;;15.32;37.59
1776;BME280;885;42.626;23.200;2023-02-18T13:44:08;85527.34;;;15.53;38.26
1776;BME280;885;42.626;23.200;2023-02-18T13:46:48;84331.91;;;14.77;37.90
1776;BME280;885;42.626;23.200;2023-02-18T13:49:19;83653.09;;;14.22;38.78
1776;BME280;885;42.626;23.200;2023-02-18T13:51:49;83887.34;;;14.30;39.39
1776;BME280;885;42.626;23.200;2023-02-18T13:54:21;83985.75;;;14.40;39.47